createdAt,value
2022-09-09T00:00:50.144Z,18.10
2022-09-09T00:03:21.953Z,18.10
2022-09-09T00:06:00.715Z,18.10
2022-09-09T00:08:41.139Z,18.10
2022-09-09T00:11:14.669Z,18.10
2022-09-09T00:13:50.061Z,18.00
2022-09-09T00:16:25.146Z,18.00
2022-09-09T00:19:00.379Z,18.00
2022-09-09T00:21:35.277Z,18.10
2022-09-09T00:24:10.908Z,18.00
2022-09-09T00:26:44.232Z,18.00
2022-09-09T00:29:20.993Z,18.00
2022-09-09T00:31:50.556Z,17.90
2022-09-09T00:34:22.579Z,17.90
2022-09-09T00:36:53.061Z,17.90
2022-09-09T00:39:27.338Z,17.90
2022-09-09T00:42:12.453Z,17.90
2022-09-09T00:44:41.184Z,17.90
2022-09-09T00:47:27.413Z,17.90
2022-09-09T00:50:05.196Z,17.80
2022-09-09T00:52:41.894Z,17.80
2022-09-09T00:55:19.950Z,17.90
2022-09-09T00:57:51.318Z,17.80
2022-09-09T01:00:23.428Z,17.80
2022-09-09T01:03:15.876Z,17.80
2022-09-09T01:05:48.957Z,17.80
2022-09-09T01:08:31.191Z,17.80
2022-09-09T01:11:00.686Z,17.70
2022-09-09T01:13:32.051Z,17.70
2022-09-09T01:16:03.646Z,17.70
2022-09-09T01:18:37.250Z,17.70
2022-09-09T01:21:17.277Z,17.70
2022-09-09T01:24:06.949Z,17.70
2022-09-09T01:26:37.751Z,17.70
2022-09-09T01:29:10.174Z,17.70
2022-09-09T01:31:42.011Z,17.70
2022-09-09T01:34:14.561Z,17.60
2022-09-09T01:36:46.415Z,17.60
2022-09-09T01:39:15.260Z,17.60
2022-09-09T01:41:44.777Z,17.60
2022-09-09T01:44:13.657Z,17.60
2022-09-09T01:46:42.212Z,17.60
2022-09-09T01:49:11.044Z,17.50
2022-09-09T01:51:41.532Z,17.50
2022-09-09T01:54:10.113Z,17.50
2022-09-09T01:56:49.267Z,17.50
2022-09-09T01:59:35.762Z,17.50
2022-09-09T02:02:11.960Z,17.50
2022-09-09T02:04:42.373Z,17.40
2022-09-09T02:07:23.450Z,17.40
2022-09-09T02:10:01.030Z,17.40
2022-09-09T02:12:32.545Z,17.40
2022-09-09T02:15:06.695Z,17.40
2022-09-09T02:17:38.595Z,17.40
2022-09-09T02:20:09.839Z,17.40
2022-09-09T02:22:40.979Z,17.40
2022-09-09T02:25:12.921Z,17.40
2022-09-09T02:27:43.562Z,17.40
2022-09-09T02:30:12.811Z,17.40
2022-09-09T02:32:44.499Z,17.30
2022-09-09T02:35:16.102Z,17.30
2022-09-09T02:37:47.982Z,17.30
2022-09-09T02:40:17.736Z,17.30
2022-09-09T02:42:49.019Z,17.30
2022-09-09T02:45:19.720Z,17.30
2022-09-09T02:47:55.359Z,17.30
2022-09-09T02:50:28.105Z,17.30
2022-09-09T02:53:08.651Z,17.30
2022-09-09T02:55:43.255Z,17.30
2022-09-09T02:58:18.001Z,17.30
2022-09-09T03:00:48.189Z,17.30
2022-09-09T03:03:17.755Z,17.20
2022-09-09T03:05:46.536Z,17.20
2022-09-09T03:08:15.385Z,17.30
2022-09-09T03:10:43.523Z,17.20
2022-09-09T03:13:16.225Z,17.30
2022-09-09T03:15:44.571Z,17.20
2022-09-09T03:18:12.645Z,17.20
2022-09-09T03:20:43.062Z,17.20
2022-09-09T03:23:15.521Z,17.20
2022-09-09T03:25:49.303Z,17.20
2022-09-09T03:28:18.821Z,17.20
2022-09-09T03:30:46.862Z,17.20
2022-09-09T03:33:16.084Z,17.20
2022-09-09T03:35:49.898Z,17.20
2022-09-09T03:38:18.106Z,17.10
2022-09-09T03:40:52.340Z,17.10
2022-09-09T03:43:22.312Z,17.20
2022-09-09T03:45:50.776Z,17.10
2022-09-09T03:48:20.041Z,17.10
2022-09-09T03:50:48.623Z,17.00
2022-09-09T03:53:18.496Z,17.00
2022-09-09T03:55:47.763Z,17.00
2022-09-09T03:58:15.885Z,17.00
2022-09-09T04:00:46.074Z,17.00
2022-09-09T04:03:14.568Z,17.00
2022-09-09T04:05:43.446Z,17.00
2022-09-09T04:08:12.525Z,17.00
2022-09-09T04:10:40.579Z,17.00
2022-09-09T04:13:08.626Z,17.00
2022-09-09T04:15:37.482Z,17.00
2022-09-09T04:18:07.461Z,17.00
2022-09-09T04:20:35.670Z,17.00
2022-09-09T04:23:04.557Z,17.00
2022-09-09T04:25:32.577Z,17.00
2022-09-09T04:28:00.621Z,17.00
2022-09-09T04:30:29.515Z,17.00
2022-09-09T04:32:58.719Z,17.00
2022-09-09T04:35:28.249Z,17.00
2022-09-09T04:37:56.337Z,17.00
2022-09-09T04:40:24.412Z,17.00
2022-09-09T04:42:52.508Z,17.00
2022-09-09T04:45:20.707Z,17.00
2022-09-09T04:47:48.804Z,17.00
2022-09-09T04:50:17.807Z,17.00
2022-09-09T04:52:47.231Z,17.00
2022-09-09T04:55:15.595Z,17.00
2022-09-09T04:57:43.690Z,17.00
2022-09-09T05:00:14.680Z,17.00
2022-09-09T05:02:43.628Z,17.00
2022-09-09T05:05:12.248Z,17.10
2022-09-09T05:07:40.252Z,17.10
2022-09-09T05:10:11.078Z,17.10
2022-09-09T05:12:39.099Z,17.10
2022-09-09T05:15:08.183Z,17.20
2022-09-09T05:17:36.236Z,17.20
2022-09-09T05:20:09.140Z,17.30
2022-09-09T05:22:38.269Z,17.30
2022-09-09T05:25:06.989Z,17.30
2022-09-09T05:27:37.572Z,17.40
2022-09-09T05:30:06.719Z,17.40
2022-09-09T05:32:35.304Z,17.50
2022-09-09T05:35:03.799Z,17.50
2022-09-09T05:37:33.329Z,17.50
2022-09-09T05:40:02.146Z,17.60
2022-09-09T05:42:33.587Z,17.60
2022-09-09T05:45:03.027Z,17.70
2022-09-09T05:47:31.280Z,17.80
2022-09-09T05:49:59.328Z,17.80
2022-09-09T05:52:28.372Z,17.80
2022-09-09T05:54:58.026Z,17.90
2022-09-09T05:57:26.268Z,17.90
2022-09-09T05:59:54.794Z,17.90
2022-09-09T06:02:24.477Z,17.90
2022-09-09T06:04:52.684Z,17.90
2022-09-09T06:07:21.141Z,18.00
2022-09-09T06:09:49.411Z,18.00
2022-09-09T06:12:17.520Z,18.00
2022-09-09T06:14:46.551Z,18.00
2022-09-09T06:17:14.740Z,18.10
2022-09-09T06:19:44.345Z,18.10
2022-09-09T06:22:13.167Z,18.10
2022-09-09T06:24:41.219Z,18.10
2022-09-09T06:27:09.264Z,18.20
2022-09-09T06:29:37.299Z,18.20
2022-09-09T06:32:05.791Z,18.30
2022-09-09T06:34:33.828Z,18.30
2022-09-09T06:37:03.285Z,18.40
2022-09-09T06:39:31.761Z,18.40
2022-09-09T06:41:59.876Z,18.40
2022-09-09T06:44:31.198Z,18.50
2022-09-09T06:47:02.779Z,18.50
2022-09-09T06:49:30.885Z,18.50
2022-09-09T06:51:58.895Z,18.60
2022-09-09T06:54:29.091Z,18.50
2022-09-09T06:56:57.164Z,18.60
2022-09-09T06:59:25.206Z,18.50
2022-09-09T07:01:56.199Z,18.60
2022-09-09T07:04:24.568Z,18.50
2022-09-09T07:06:53.620Z,18.60
2022-09-09T07:09:22.646Z,18.70
2022-09-09T07:11:53.918Z,18.80
2022-09-09T07:14:23.066Z,18.90
2022-09-09T07:16:51.196Z,18.90
2022-09-09T07:19:19.236Z,19.00
2022-09-09T07:21:47.299Z,19.10
2022-09-09T07:24:16.689Z,19.10
2022-09-09T07:26:45.030Z,19.10
2022-09-09T07:29:20.436Z,19.20
2022-09-09T07:31:49.405Z,19.30
2022-09-09T07:34:17.855Z,19.40
2022-09-09T07:36:46.728Z,19.40
2022-09-09T07:39:16.051Z,19.50
2022-09-09T07:41:46.121Z,19.50
2022-09-09T07:44:18.107Z,19.60
2022-09-09T07:46:47.313Z,19.70
2022-09-09T07:49:16.166Z,19.80
2022-09-09T07:51:46.317Z,19.90
2022-09-09T07:54:16.219Z,20.00
2022-09-09T07:56:44.681Z,20.10
2022-09-09T07:59:13.115Z,20.20
2022-09-09T08:01:44.513Z,20.40
2022-09-09T08:04:16.505Z,20.50
2022-09-09T08:06:47.652Z,20.60
2022-09-09T08:09:16.634Z,20.80
2022-09-09T08:11:45.279Z,20.80
2022-09-09T08:14:14.262Z,20.90
2022-09-09T08:16:45.901Z,20.90
2022-09-09T08:19:16.409Z,20.90
2022-09-09T08:21:46.137Z,21.00
2022-09-09T08:24:15.777Z,20.90
2022-09-09T08:26:46.363Z,20.90
2022-09-09T08:29:15.837Z,20.90
2022-09-09T08:31:47.919Z,20.80
2022-09-09T08:34:16.404Z,20.80
2022-09-09T08:36:46.351Z,20.70
2022-09-09T08:39:15.927Z,20.70
2022-09-09T08:42:01.657Z,20.60
2022-09-09T08:44:48.214Z,20.70
2022-09-09T08:47:33.124Z,20.70
2022-09-09T08:50:15.540Z,20.70
2022-09-09T08:52:53.626Z,20.60
2022-09-09T08:55:29.588Z,20.60
2022-09-09T08:58:02.041Z,20.60
2022-09-09T09:00:37.725Z,20.60
2022-09-09T09:03:15.699Z,20.70
2022-09-09T09:05:53.492Z,20.70
2022-09-09T09:08:30.506Z,20.80
2022-09-09T09:11:01.446Z,20.90
2022-09-09T09:13:40.466Z,21.10
2022-09-09T09:16:21.907Z,21.20
2022-09-09T09:18:52.154Z,21.40
2022-09-09T09:21:29.132Z,21.60
2022-09-09T09:24:00.276Z,21.80
2022-09-09T09:26:33.656Z,22.00
2022-09-09T09:29:10.516Z,22.30
2022-09-09T09:31:38.640Z,22.50
2022-09-09T09:34:11.278Z,22.70
2022-09-09T09:36:45.685Z,22.90
2022-09-09T09:42:17.111Z,23.20
2022-09-09T09:44:47.115Z,23.30
2022-09-09T09:47:17.761Z,23.40
2022-09-09T09:49:56.353Z,23.40
2022-09-09T09:52:26.600Z,23.40
2022-09-09T09:54:55.561Z,23.30
2022-09-09T09:57:28.936Z,23.20
2022-09-09T10:00:08.021Z,23.10
2022-09-09T10:02:41.755Z,23.00
2022-09-09T10:05:16.902Z,22.90
2022-09-09T10:07:46.969Z,22.80
2022-09-09T10:10:21.600Z,22.70
2022-09-09T10:13:00.346Z,22.70
2022-09-09T10:15:44.711Z,22.70
2022-09-09T10:18:27.793Z,22.60
2022-09-09T10:21:04.514Z,22.60
2022-09-09T10:23:48.666Z,22.50
2022-09-09T10:26:31.347Z,22.50
2022-09-09T10:29:22.251Z,22.50
2022-09-09T10:32:01.459Z,22.50
2022-09-09T10:34:57.280Z,22.60
2022-09-09T10:37:45.481Z,22.70
2022-09-09T10:40:31.011Z,22.70
2022-09-09T10:43:07.235Z,22.70
2022-09-09T10:45:42.354Z,22.70
2022-09-09T10:48:23.336Z,22.70
2022-09-09T10:51:01.019Z,22.60
2022-09-09T10:53:39.739Z,22.70
2022-09-09T10:56:10.457Z,22.80
2022-09-09T10:58:44.455Z,22.80
2022-09-09T11:01:19.577Z,22.80
2022-09-09T11:03:54.220Z,22.80
2022-09-09T11:06:25.751Z,22.80
2022-09-09T11:08:57.051Z,22.80
2022-09-09T11:11:32.155Z,22.90
2022-09-09T11:14:04.559Z,22.90
2022-09-09T11:16:39.586Z,23.00
2022-09-09T11:19:22.357Z,23.00
2022-09-09T11:21:53.042Z,23.00
2022-09-09T11:24:27.139Z,23.00
2022-09-09T11:27:00.802Z,23.10
2022-09-09T11:29:54.889Z,23.10
2022-09-09T11:32:51.942Z,23.20
2022-09-09T11:35:35.590Z,23.40
2022-09-09T11:38:21.669Z,23.50
2022-09-09T11:40:58.920Z,23.50
2022-09-09T11:43:30.547Z,23.60
2022-09-09T11:46:01.820Z,23.70
2022-09-09T11:48:37.253Z,23.80
2022-09-09T11:51:11.028Z,23.90
2022-09-09T11:53:51.598Z,23.90
2022-09-09T11:56:32.990Z,23.90
2022-09-09T11:59:04.687Z,23.80
2022-09-09T12:01:38.451Z,23.90
2022-09-09T12:04:22.399Z,23.90
2022-09-09T12:06:54.640Z,23.90
2022-09-09T12:09:29.112Z,23.80
2022-09-09T12:12:09.967Z,23.70
2022-09-09T12:14:40.087Z,23.80
2022-09-09T12:17:20.668Z,23.70
2022-09-09T12:19:49.083Z,23.80
2022-09-09T12:22:27.651Z,23.80
2022-09-09T12:25:06.665Z,23.90
2022-09-09T12:27:41.908Z,24.10
2022-09-09T12:30:13.220Z,24.30
2022-09-09T12:32:41.536Z,24.40
2022-09-09T12:35:15.063Z,24.60
2022-09-09T12:37:49.473Z,24.60
2022-09-09T12:40:23.593Z,24.60
2022-09-09T12:42:53.392Z,24.50
2022-09-09T12:45:23.932Z,24.50
2022-09-09T12:47:55.660Z,24.40
2022-09-09T12:50:26.708Z,24.40
2022-09-09T12:52:56.799Z,24.30
2022-09-09T12:55:31.214Z,24.30
2022-09-09T12:58:01.607Z,24.30
2022-09-09T13:00:31.450Z,24.30
2022-09-09T13:03:01.939Z,24.30
2022-09-09T13:05:36.143Z,24.30
2022-09-09T13:08:05.528Z,24.30
2022-09-09T13:10:52.919Z,24.30
2022-09-09T13:13:28.633Z,24.30
2022-09-09T13:15:58.955Z,24.30
2022-09-09T13:18:30.611Z,24.40
2022-09-09T13:21:00.082Z,24.50
2022-09-09T13:23:30.453Z,24.50
2022-09-09T13:26:00.442Z,24.60
2022-09-09T13:28:34.324Z,24.70
2022-09-09T13:31:04.235Z,24.80
2022-09-09T13:33:35.503Z,24.80
2022-09-09T13:36:06.341Z,24.80
2022-09-09T13:38:37.743Z,24.80
2022-09-09T13:41:08.244Z,24.70
2022-09-09T13:43:40.438Z,24.80
2022-09-09T13:46:28.646Z,24.80
2022-09-09T13:48:57.878Z,24.90
2022-09-09T13:51:39.123Z,24.90
2022-09-09T13:54:08.814Z,25.00
2022-09-09T13:56:37.399Z,25.10
2022-09-09T13:59:10.872Z,25.20
2022-09-09T14:01:39.071Z,25.40
2022-09-09T14:04:08.487Z,25.60
2022-09-09T14:06:38.329Z,25.80
2022-09-09T14:09:06.470Z,25.90
2022-09-09T14:11:34.596Z,26.00
2022-09-09T14:14:02.671Z,25.90
2022-09-09T14:16:32.177Z,25.90
2022-09-09T14:19:00.291Z,25.80
2022-09-09T14:21:29.662Z,25.70
2022-09-09T14:23:58.969Z,25.70
2022-09-09T14:26:27.496Z,25.70
2022-09-09T14:28:56.257Z,25.80
2022-09-09T14:31:24.848Z,25.80
2022-09-09T14:33:54.759Z,25.90
2022-09-09T14:36:23.904Z,25.90
2022-09-09T14:38:52.265Z,26.00
2022-09-09T14:41:23.696Z,26.00
2022-09-09T14:43:52.709Z,26.00
2022-09-09T14:46:22.541Z,26.00
2022-09-09T14:48:51.003Z,26.10
2022-09-09T14:51:23.234Z,26.10
2022-09-09T14:53:55.096Z,25.90
2022-09-09T14:56:25.564Z,25.90
2022-09-09T14:58:56.351Z,25.80
2022-09-09T15:01:25.516Z,25.80
2022-09-09T15:03:55.319Z,25.70
2022-09-09T15:06:26.247Z,25.60
2022-09-09T15:08:58.773Z,25.40
2022-09-09T15:11:29.340Z,25.40
2022-09-09T15:13:57.474Z,25.30
2022-09-09T15:16:28.661Z,25.30
2022-09-09T15:18:58.775Z,25.30
2022-09-09T15:21:30.287Z,25.20
2022-09-09T15:23:59.326Z,25.20
2022-09-09T15:26:28.193Z,25.20
2022-09-09T15:28:56.653Z,25.20
2022-09-09T15:31:26.546Z,25.30
2022-09-09T15:34:01.550Z,25.50
2022-09-09T15:36:33.250Z,25.70
2022-09-09T15:39:01.946Z,25.90
2022-09-09T15:41:31.054Z,26.00
2022-09-09T15:43:59.848Z,26.10
2022-09-09T15:46:31.649Z,26.00
2022-09-09T15:49:04.929Z,25.90
2022-09-09T15:51:42.574Z,25.90
2022-09-09T15:54:13.292Z,25.80
2022-09-09T15:56:42.625Z,25.70
2022-09-09T15:59:11.126Z,25.50
2022-09-09T16:01:40.585Z,25.40
2022-09-09T16:04:08.787Z,25.40
2022-09-09T16:06:38.515Z,25.20
2022-09-09T16:09:08.466Z,25.20
2022-09-09T16:11:38.631Z,25.20
2022-09-09T16:14:07.713Z,25.20
2022-09-09T16:16:37.104Z,25.10
2022-09-09T16:19:07.510Z,25.00
2022-09-09T16:21:40.903Z,25.00
2022-09-09T16:24:10.875Z,25.00
2022-09-09T16:26:41.428Z,24.90
2022-09-09T16:29:09.872Z,24.80
2022-09-09T16:31:38.688Z,24.80
2022-09-09T16:34:06.978Z,24.70
2022-09-09T16:36:37.424Z,24.70
2022-09-09T16:39:08.354Z,24.60
2022-09-09T16:41:36.803Z,24.60
2022-09-09T16:44:06.692Z,24.50
2022-09-09T16:46:37.590Z,24.50
2022-09-09T16:49:08.113Z,24.40
2022-09-09T16:51:38.166Z,24.30
2022-09-09T16:54:09.495Z,24.30
2022-09-09T16:56:40.050Z,24.20
2022-09-09T16:59:10.016Z,24.20
2022-09-09T17:01:39.681Z,24.10
2022-09-09T17:04:10.123Z,24.00
2022-09-09T17:06:39.160Z,24.00
2022-09-09T17:09:11.073Z,23.90
2022-09-09T17:11:39.760Z,23.80
2022-09-09T17:14:10.338Z,23.80
2022-09-09T17:16:40.644Z,23.70
2022-09-09T17:19:10.235Z,23.60
2022-09-09T17:21:54.475Z,23.50
2022-09-09T17:24:30.263Z,23.50
2022-09-09T17:26:58.932Z,23.40
2022-09-09T17:29:27.027Z,23.30
2022-09-09T17:31:56.008Z,23.20
2022-09-09T17:34:25.185Z,23.10
2022-09-09T17:36:53.295Z,23.00
2022-09-09T17:39:21.565Z,22.90
2022-09-09T17:41:51.268Z,22.80
2022-09-09T17:44:20.445Z,22.70
2022-09-09T17:46:48.801Z,22.70
2022-09-09T17:49:19.466Z,22.60
2022-09-09T17:51:47.915Z,22.50
2022-09-09T17:54:18.432Z,22.50
2022-09-09T17:56:47.941Z,22.40
2022-09-09T17:59:19.282Z,22.30
2022-09-09T18:01:49.485Z,22.20
2022-09-09T18:04:19.004Z,22.20
2022-09-09T18:06:49.170Z,22.10
2022-09-09T18:09:20.540Z,22.10
2022-09-09T18:11:50.909Z,22.00
2022-09-09T18:14:22.384Z,22.00
2022-09-09T18:16:51.215Z,21.90
2022-09-09T18:19:20.910Z,21.80
2022-09-09T18:21:49.860Z,21.80
2022-09-09T18:24:19.818Z,21.70
2022-09-09T18:26:48.736Z,21.70
2022-09-09T18:29:20.045Z,21.60
2022-09-09T18:31:50.284Z,21.60
2022-09-09T18:34:20.539Z,21.50
2022-09-09T18:36:53.766Z,21.50
2022-09-09T18:39:24.999Z,21.50
2022-09-09T18:41:55.417Z,21.40
2022-09-09T18:44:26.164Z,21.40
2022-09-09T18:46:55.954Z,21.30
2022-09-09T18:49:25.779Z,21.30
2022-09-09T18:51:54.566Z,21.20
2022-09-09T18:54:24.790Z,21.10
2022-09-09T18:56:54.133Z,21.10
2022-09-09T18:59:24.724Z,21.10
2022-09-09T19:01:55.413Z,21.00
2022-09-09T19:04:25.406Z,20.90
2022-09-09T19:06:58.168Z,20.90
2022-09-09T19:09:28.598Z,20.80
2022-09-09T19:11:57.000Z,20.80
2022-09-09T19:14:25.297Z,20.80
2022-09-09T19:16:55.504Z,20.70
2022-09-09T19:19:26.718Z,20.70
2022-09-09T19:21:57.829Z,20.60
2022-09-09T19:24:28.707Z,20.60
2022-09-09T19:26:59.271Z,20.60
2022-09-09T19:29:29.203Z,20.60
2022-09-09T19:34:48.448Z,20.50
2022-09-09T19:37:18.520Z,20.50
2022-09-09T19:39:47.224Z,20.50
2022-09-09T19:42:15.719Z,20.50
2022-09-09T19:44:43.967Z,20.40
2022-09-09T19:47:15.086Z,20.40
2022-09-09T19:49:46.909Z,20.40
2022-09-09T19:52:17.381Z,20.40
2022-09-09T19:54:46.040Z,20.30
2022-09-09T19:57:14.133Z,20.30
2022-09-09T19:59:42.170Z,20.20
2022-09-09T20:02:15.434Z,20.10
2022-09-09T20:04:44.633Z,20.10
2022-09-09T20:07:12.858Z,20.00
2022-09-09T20:09:40.891Z,20.00
2022-09-09T20:12:10.006Z,20.00
2022-09-09T20:14:39.779Z,20.00
2022-09-09T20:17:08.642Z,19.90
2022-09-09T20:19:39.809Z,19.90
2022-09-09T20:22:08.252Z,19.90
2022-09-09T20:24:37.056Z,19.90
2022-09-09T20:27:07.097Z,19.80
2022-09-09T20:29:35.299Z,19.80
2022-09-09T20:32:03.719Z,19.80
2022-09-09T20:34:31.813Z,19.80
2022-09-09T20:37:02.820Z,19.70
2022-09-09T20:39:30.920Z,19.70
2022-09-09T20:41:59.001Z,19.60
2022-09-09T20:44:27.087Z,19.60
2022-09-09T20:46:57.197Z,19.60
2022-09-09T20:49:25.738Z,19.50
2022-09-09T20:51:55.284Z,19.50
2022-09-09T20:54:25.988Z,19.50
2022-09-09T20:56:55.588Z,19.50
2022-09-09T20:59:25.480Z,19.50
2022-09-09T21:01:54.444Z,19.40
2022-09-09T21:04:25.087Z,19.40
2022-09-09T21:06:53.804Z,19.40
2022-09-09T21:09:23.226Z,19.40
2022-09-09T21:11:53.555Z,19.40
2022-09-09T21:14:21.941Z,19.40
2022-09-09T21:16:50.341Z,19.30
2022-09-09T21:19:18.732Z,19.30
2022-09-09T21:21:48.028Z,19.30
2022-09-09T21:24:16.348Z,19.30
2022-09-09T21:26:44.462Z,19.30
2022-09-09T21:29:14.309Z,19.20
2022-09-09T21:31:43.296Z,19.20
2022-09-09T21:34:13.338Z,19.20
2022-09-09T21:36:42.108Z,19.20
2022-09-09T21:39:11.655Z,19.20
2022-09-09T21:41:40.801Z,19.10
2022-09-09T21:44:11.777Z,19.10
2022-09-09T21:46:43.893Z,19.10
2022-09-09T21:49:12.142Z,19.10
2022-09-09T21:51:40.204Z,19.00
2022-09-09T21:54:08.285Z,19.00
2022-09-09T21:56:36.812Z,19.00
2022-09-09T21:59:04.881Z,19.00
2022-09-09T22:01:34.912Z,19.00
2022-09-09T22:04:04.757Z,19.00
2022-09-09T22:06:32.823Z,19.00
2022-09-09T22:09:02.189Z,18.90
2022-09-09T22:11:31.440Z,18.90
2022-09-09T22:13:59.660Z,18.90
2022-09-09T22:16:27.922Z,18.90
2022-09-09T22:18:58.088Z,18.90
2022-09-09T22:21:30.208Z,18.90
2022-09-09T22:23:59.899Z,18.90
2022-09-09T22:26:30.227Z,18.80
2022-09-09T22:28:58.324Z,18.80
2022-09-09T22:31:27.756Z,18.80
2022-09-09T22:33:56.003Z,18.80
2022-09-09T22:36:25.927Z,18.70
2022-09-09T22:38:56.016Z,18.70
2022-09-09T22:41:25.052Z,18.70
2022-09-09T22:43:53.612Z,18.70
2022-09-09T22:46:22.378Z,18.70
2022-09-09T22:48:50.725Z,18.70
2022-09-09T22:51:18.789Z,18.70
2022-09-09T22:53:47.304Z,18.70
2022-09-09T22:56:18.828Z,18.60
2022-09-09T22:58:47.899Z,18.60
2022-09-09T23:01:17.544Z,18.60
2022-09-09T23:03:47.199Z,18.60
2022-09-09T23:06:22.204Z,18.50
2022-09-09T23:08:52.092Z,18.50
2022-09-09T23:11:21.643Z,18.50
2022-09-09T23:13:52.655Z,18.40
2022-09-09T23:16:22.643Z,18.40
2022-09-09T23:18:52.276Z,18.40
2022-09-09T23:21:20.934Z,18.40
2022-09-09T23:23:49.244Z,18.40
2022-09-09T23:26:20.990Z,18.40
2022-09-09T23:28:52.569Z,18.50
2022-09-09T23:31:22.441Z,18.50
2022-09-09T23:33:50.741Z,18.40
2022-09-09T23:36:22.708Z,18.40
2022-09-09T23:38:51.521Z,18.40
2022-09-09T23:41:21.557Z,18.40
2022-09-09T23:43:52.395Z,18.40
2022-09-09T23:46:22.975Z,18.40
2022-09-09T23:48:52.255Z,18.40
2022-09-09T23:51:24.011Z,18.40
2022-09-09T23:53:55.936Z,18.40
2022-09-09T23:56:26.066Z,18.40
2022-09-09T23:58:55.887Z,18.40
